createdAt,value
2023-05-04T00:00:08.259Z,0.00
2023-05-04T00:01:07.712Z,0.00
2023-05-04T00:02:07.703Z,0.00
2023-05-04T00:03:08.558Z,0.00
2023-05-04T00:04:07.840Z,0.00
2023-05-04T00:05:07.666Z,0.00
2023-05-04T00:06:07.729Z,0.00
2023-05-04T00:07:07.637Z,0.00
2023-05-04T00:08:07.681Z,0.00
2023-05-04T00:09:07.818Z,0.00
2023-05-04T00:10:08.085Z,0.00
2023-05-04T00:11:07.589Z,0.00
2023-05-04T00:12:07.744Z,0.00
2023-05-04T00:13:07.634Z,0.00
2023-05-04T00:14:07.768Z,0.00
2023-05-04T00:15:07.737Z,0.00
2023-05-04T00:16:10.489Z,0.00
2023-05-04T00:17:08.744Z,0.00
2023-05-04T00:18:08.002Z,0.00
2023-05-04T00:19:08.437Z,0.00
2023-05-04T00:20:07.568Z,0.00
2023-05-04T00:21:07.490Z,0.00
2023-05-04T00:22:07.746Z,0.00
2023-05-04T00:23:07.477Z,0.00
2023-05-04T00:24:07.424Z,0.00
2023-05-04T00:25:08.494Z,0.00
2023-05-04T00:26:07.402Z,0.00
2023-05-04T00:27:07.849Z,0.00
2023-05-04T00:28:07.401Z,0.00
2023-05-04T00:29:07.408Z,0.00
2023-05-04T00:30:07.751Z,0.00
2023-05-04T00:31:07.789Z,0.00
2023-05-04T00:32:07.747Z,0.00
2023-05-04T00:33:07.353Z,0.00
2023-05-04T00:34:07.348Z,0.00
2023-05-04T00:35:07.310Z,0.00
2023-05-04T00:36:07.392Z,0.00
2023-05-04T00:37:07.429Z,0.00
2023-05-04T00:38:07.289Z,0.00
2023-05-04T00:39:07.272Z,0.00
2023-05-04T00:40:07.561Z,0.00
2023-05-04T00:41:07.246Z,0.00
2023-05-04T00:42:07.243Z,0.00
2023-05-04T00:43:07.322Z,0.00
2023-05-04T00:44:07.277Z,0.00
2023-05-04T00:45:07.194Z,0.00
2023-05-04T00:46:07.362Z,0.00
2023-05-04T00:47:07.172Z,0.00
2023-05-04T00:48:07.200Z,0.00
2023-05-04T00:49:07.396Z,0.00
2023-05-04T00:50:07.324Z,0.00
2023-05-04T00:51:07.104Z,0.00
2023-05-04T00:52:07.115Z,0.00
2023-05-04T00:53:07.078Z,0.00
2023-05-04T00:54:07.456Z,0.00
2023-05-04T00:55:07.083Z,0.00
2023-05-04T00:56:07.125Z,0.00
2023-05-04T00:57:07.039Z,0.00
2023-05-04T00:58:07.513Z,0.00
2023-05-04T00:59:07.308Z,0.00
2023-05-04T01:00:07.382Z,0.00
2023-05-04T01:01:07.175Z,0.00
2023-05-04T01:02:07.596Z,0.00
2023-05-04T01:03:07.052Z,0.00
2023-05-04T01:04:07.711Z,0.00
2023-05-04T01:05:06.945Z,0.00
2023-05-04T01:06:06.990Z,0.00
2023-05-04T01:07:07.627Z,0.00
2023-05-04T01:08:06.949Z,0.00
2023-05-04T01:09:06.894Z,0.00
2023-05-04T01:10:07.300Z,0.00
2023-05-04T01:11:06.879Z,0.00
2023-05-04T01:12:06.877Z,0.00
2023-05-04T01:13:07.029Z,0.00
2023-05-04T01:14:06.861Z,0.00
2023-05-04T01:15:06.835Z,0.00
2023-05-04T01:16:07.381Z,0.00
2023-05-04T01:17:06.932Z,0.00
2023-05-04T01:18:06.880Z,0.00
2023-05-04T01:19:06.789Z,0.00
2023-05-04T01:20:07.054Z,0.00
2023-05-04T01:21:06.773Z,0.00
2023-05-04T01:22:06.753Z,0.00
2023-05-04T01:23:06.731Z,0.00
2023-05-04T01:24:06.735Z,0.00
2023-05-04T01:25:06.796Z,0.00
2023-05-04T01:26:06.799Z,0.00
2023-05-04T01:27:06.704Z,0.00
2023-05-04T01:28:06.709Z,0.00
2023-05-04T01:29:06.802Z,0.00
2023-05-04T01:30:06.869Z,0.00
2023-05-04T01:31:06.897Z,0.00
2023-05-04T01:32:06.677Z,0.00
2023-05-04T01:33:06.657Z,0.00
2023-05-04T01:34:06.807Z,0.00
2023-05-04T01:35:06.608Z,0.00
2023-05-04T01:36:06.615Z,0.00
2023-05-04T01:37:06.560Z,0.00
2023-05-04T01:38:06.821Z,0.00
2023-05-04T01:39:06.725Z,0.00
2023-05-04T01:40:06.701Z,0.00
2023-05-04T01:41:06.524Z,0.00
2023-05-04T01:42:06.533Z,0.00
2023-05-04T01:43:06.500Z,0.00
2023-05-04T01:44:06.498Z,0.00
2023-05-04T01:45:06.480Z,0.00
2023-05-04T01:46:06.534Z,0.00
2023-05-04T01:47:06.810Z,0.00
2023-05-04T01:48:06.500Z,0.00
2023-05-04T01:49:06.439Z,0.00
2023-05-04T01:50:06.969Z,0.00
2023-05-04T01:51:06.422Z,0.00
2023-05-04T01:52:06.402Z,0.00
2023-05-04T01:53:06.812Z,0.00
2023-05-04T01:54:06.819Z,0.00
2023-05-04T01:55:06.788Z,0.00
2023-05-04T01:56:06.345Z,0.00
2023-05-04T01:57:06.320Z,0.00
2023-05-04T01:58:06.832Z,0.00
2023-05-04T01:59:06.304Z,0.00
2023-05-04T02:00:06.538Z,0.00
2023-05-04T02:01:06.279Z,0.00
2023-05-04T02:02:06.443Z,0.00
2023-05-04T02:03:06.386Z,0.00
2023-05-04T02:04:06.333Z,0.00
2023-05-04T02:05:06.409Z,0.00
2023-05-04T02:06:06.430Z,0.00
2023-05-04T02:07:06.218Z,0.00
2023-05-04T02:08:06.455Z,0.00
2023-05-04T02:09:06.177Z,0.00
2023-05-04T02:10:06.367Z,0.00
2023-05-04T02:11:06.209Z,0.00
2023-05-04T02:12:06.160Z,0.00
2023-05-04T02:13:06.170Z,0.00
2023-05-04T02:14:06.174Z,0.00
2023-05-04T02:15:06.110Z,0.00
2023-05-04T02:16:06.152Z,0.00
2023-05-04T02:17:06.482Z,0.00
2023-05-04T02:18:06.177Z,0.00
2023-05-04T02:19:06.077Z,0.00
2023-05-04T02:20:06.412Z,0.00
2023-05-04T02:21:06.524Z,0.00
2023-05-04T02:22:06.053Z,0.00
2023-05-04T02:23:06.653Z,0.00
2023-05-04T02:24:06.030Z,0.00
2023-05-04T02:25:06.008Z,0.00
2023-05-04T02:26:06.010Z,0.00
2023-05-04T02:27:05.970Z,0.00
2023-05-04T02:28:06.000Z,0.00
2023-05-04T02:29:06.243Z,0.00
2023-05-04T02:30:06.994Z,0.00
2023-05-04T02:31:05.928Z,0.00
2023-05-04T02:32:06.205Z,0.00
2023-05-04T02:33:06.806Z,0.00
2023-05-04T02:34:05.928Z,0.00
2023-05-04T02:35:05.890Z,0.00
2023-05-04T02:36:05.881Z,0.00
2023-05-04T02:37:07.325Z,0.00
2023-05-04T02:38:05.900Z,0.00
2023-05-04T02:39:05.855Z,0.00
2023-05-04T02:40:06.084Z,0.00
2023-05-04T02:41:05.845Z,0.00
2023-05-04T02:42:05.812Z,0.00
2023-05-04T02:43:05.782Z,0.00
2023-05-04T02:44:05.793Z,0.00
2023-05-04T02:45:05.850Z,0.00
2023-05-04T02:46:05.923Z,0.00
2023-05-04T02:47:05.743Z,0.00
2023-05-04T02:48:05.985Z,0.00
2023-05-04T02:49:05.724Z,0.00
2023-05-04T02:50:05.999Z,0.00
2023-05-04T02:51:05.858Z,0.00
2023-05-04T02:52:05.702Z,0.00
2023-05-04T02:53:05.852Z,0.00
2023-05-04T02:54:05.877Z,0.00
2023-05-04T02:55:05.669Z,0.00
2023-05-04T02:56:05.655Z,0.00
2023-05-04T02:57:05.703Z,0.00
2023-05-04T02:58:05.662Z,0.00
2023-05-04T02:59:05.760Z,0.00
2023-05-04T03:00:06.076Z,0.00
2023-05-04T03:01:05.851Z,0.00
2023-05-04T03:02:05.861Z,0.00
2023-05-04T03:03:05.619Z,0.00
2023-05-04T03:04:05.622Z,0.00
2023-05-04T03:05:05.722Z,0.00
2023-05-04T03:06:05.563Z,0.00
2023-05-04T03:07:05.869Z,0.00
2023-05-04T03:08:05.612Z,0.00
2023-05-04T03:09:06.087Z,0.00
2023-05-04T03:10:05.649Z,0.00
2023-05-04T03:11:05.485Z,0.00
2023-05-04T03:12:06.197Z,0.00
2023-05-04T03:13:05.970Z,0.00
2023-05-04T03:14:05.621Z,0.00
2023-05-04T03:15:05.849Z,0.00
2023-05-04T03:16:05.468Z,0.00
2023-05-04T03:17:06.321Z,0.00
2023-05-04T03:18:05.533Z,0.00
2023-05-04T03:19:05.393Z,0.00
2023-05-04T03:20:05.644Z,0.00
2023-05-04T03:21:05.424Z,0.00
2023-05-04T03:22:05.394Z,0.00
2023-05-04T03:23:05.351Z,0.00
2023-05-04T03:24:05.343Z,0.00
2023-05-04T03:25:05.488Z,0.00
2023-05-04T03:26:05.482Z,0.00
2023-05-04T03:27:05.328Z,0.00
2023-05-04T03:28:05.300Z,0.00
2023-05-04T03:29:05.526Z,0.00
2023-05-04T03:30:05.422Z,0.00
2023-05-04T03:31:05.259Z,0.00
2023-05-04T03:32:05.261Z,0.00
2023-05-04T03:33:05.640Z,0.00
2023-05-04T03:34:05.226Z,0.00
2023-05-04T03:35:05.207Z,0.00
2023-05-04T03:36:05.223Z,0.00
2023-05-04T03:37:05.632Z,0.00
2023-05-04T03:38:05.210Z,0.00
2023-05-04T03:39:05.167Z,0.00
2023-05-04T03:40:05.402Z,0.00
2023-05-04T03:41:05.122Z,0.00
2023-05-04T03:42:05.137Z,0.00
2023-05-04T03:43:05.114Z,0.00
2023-05-04T03:44:05.129Z,0.00
2023-05-04T03:45:05.211Z,0.00
2023-05-04T03:46:05.133Z,0.00
2023-05-04T03:47:05.062Z,0.00
2023-05-04T03:48:05.134Z,0.00
2023-05-04T03:49:05.339Z,0.00
2023-05-04T03:50:05.353Z,0.00
2023-05-04T03:51:05.011Z,0.00
2023-05-04T03:52:05.015Z,0.00
2023-05-04T03:53:05.000Z,0.00
2023-05-04T03:54:05.097Z,0.00
2023-05-04T03:55:04.959Z,0.00
2023-05-04T03:56:04.969Z,0.00
2023-05-04T03:57:04.965Z,0.00
2023-05-04T03:58:04.967Z,0.00
2023-05-04T03:59:04.942Z,0.00
2023-05-04T04:00:05.133Z,0.00
2023-05-04T04:01:04.918Z,0.00
2023-05-04T04:02:04.903Z,0.00
2023-05-04T04:03:04.996Z,0.00
2023-05-04T04:04:04.974Z,0.00
2023-05-04T04:05:04.865Z,0.00
2023-05-04T04:06:04.851Z,0.00
2023-05-04T04:07:04.822Z,0.00
2023-05-04T04:08:04.842Z,0.00
2023-05-04T04:09:04.809Z,0.00
2023-05-04T04:10:05.105Z,0.00
2023-05-04T04:11:04.786Z,0.00
2023-05-04T04:12:04.830Z,0.00
2023-05-04T04:13:04.962Z,0.00
2023-05-04T04:14:04.776Z,0.00
2023-05-04T04:15:04.930Z,0.00
2023-05-04T04:16:04.789Z,0.00
2023-05-04T04:17:04.718Z,0.00
2023-05-04T04:18:04.771Z,0.00
2023-05-04T04:19:04.941Z,0.00
2023-05-04T04:20:05.037Z,0.00
2023-05-04T04:21:04.670Z,0.00
2023-05-04T04:22:04.665Z,0.00
2023-05-04T04:23:04.942Z,5.62
2023-05-04T04:24:04.640Z,5.62
2023-05-04T04:25:04.937Z,5.62
2023-05-04T04:26:04.645Z,5.62
2023-05-04T04:27:04.595Z,5.62
2023-05-04T04:28:04.623Z,5.62
2023-05-04T04:29:04.575Z,5.62
2023-05-04T04:30:05.034Z,5.62
2023-05-04T04:31:04.590Z,5.62
2023-05-04T04:32:04.613Z,5.62
2023-05-04T04:33:04.716Z,5.62
2023-05-04T04:34:04.727Z,5.62
2023-05-04T04:35:04.756Z,5.62
2023-05-04T04:36:04.542Z,5.62
2023-05-04T04:37:04.806Z,11.25
2023-05-04T04:38:04.504Z,11.25
2023-05-04T04:39:04.459Z,11.25
2023-05-04T04:40:04.792Z,11.25
2023-05-04T04:41:04.433Z,11.25
2023-05-04T04:42:04.437Z,11.25
2023-05-04T04:43:04.496Z,11.25
2023-05-04T04:44:04.516Z,11.25
2023-05-04T04:45:04.528Z,16.88
2023-05-04T04:46:04.540Z,16.88
2023-05-04T04:47:04.424Z,16.88
2023-05-04T04:48:04.474Z,16.88
2023-05-04T04:49:04.573Z,16.88
2023-05-04T04:50:04.605Z,16.88
2023-05-04T04:51:04.331Z,22.50
2023-05-04T04:52:04.601Z,22.50
2023-05-04T04:53:04.315Z,22.50
2023-05-04T04:54:04.321Z,22.50
2023-05-04T04:55:04.420Z,22.50
2023-05-04T04:56:04.285Z,22.50
2023-05-04T04:57:04.256Z,22.50
2023-05-04T04:58:04.287Z,22.50
2023-05-04T04:59:04.248Z,22.50
2023-05-04T05:00:04.595Z,22.50
2023-05-04T05:01:04.756Z,22.50
2023-05-04T05:02:04.197Z,22.50
2023-05-04T05:03:04.289Z,22.50
2023-05-04T05:04:04.176Z,28.12
2023-05-04T05:05:04.951Z,28.12
2023-05-04T05:06:04.150Z,28.12
2023-05-04T05:07:04.183Z,28.12
2023-05-04T05:08:04.154Z,28.12
2023-05-04T05:09:04.306Z,33.75
2023-05-04T05:10:04.374Z,39.38
2023-05-04T05:11:04.106Z,39.38
2023-05-04T05:12:04.089Z,39.38
2023-05-04T05:13:04.129Z,45.00
2023-05-04T05:14:04.096Z,45.00
2023-05-04T05:15:04.062Z,78.75
2023-05-04T05:16:04.037Z,73.12
2023-05-04T05:17:04.192Z,45.00
2023-05-04T05:18:04.112Z,45.00
2023-05-04T05:19:04.005Z,61.88
2023-05-04T05:20:04.237Z,73.12
2023-05-04T05:21:04.000Z,84.38
2023-05-04T05:22:03.961Z,101.25
2023-05-04T05:23:03.957Z,118.12
2023-05-04T05:24:03.954Z,129.38
2023-05-04T05:25:03.988Z,135.00
2023-05-04T05:26:03.938Z,90.00
2023-05-04T05:27:03.907Z,151.88
2023-05-04T05:28:03.904Z,112.50
2023-05-04T05:29:03.922Z,84.38
2023-05-04T05:30:04.213Z,90.00
2023-05-04T05:31:03.925Z,90.00
2023-05-04T05:32:03.953Z,106.88
2023-05-04T05:33:03.908Z,118.12
2023-05-04T05:34:03.836Z,118.12
2023-05-04T05:35:03.822Z,101.25
2023-05-04T05:36:03.818Z,95.62
2023-05-04T05:37:03.802Z,90.00
2023-05-04T05:38:03.794Z,90.00
2023-05-04T05:39:03.780Z,106.88
2023-05-04T05:40:03.966Z,118.12
2023-05-04T05:41:03.777Z,129.38
2023-05-04T05:42:03.733Z,135.00
2023-05-04T05:43:03.736Z,157.50
2023-05-04T05:44:03.708Z,174.38
2023-05-04T05:45:03.717Z,196.88
2023-05-04T05:46:03.704Z,213.75
2023-05-04T05:47:03.681Z,213.75
2023-05-04T05:48:03.765Z,213.75
2023-05-04T05:49:04.005Z,230.62
2023-05-04T05:50:03.731Z,225.00
2023-05-04T05:51:03.644Z,230.62
2023-05-04T05:52:03.615Z,241.88
2023-05-04T05:53:03.615Z,264.38
2023-05-04T05:54:03.592Z,258.75
2023-05-04T05:55:03.595Z,236.25
2023-05-04T05:56:04.363Z,219.38
2023-05-04T05:57:04.014Z,208.12
2023-05-04T05:58:03.574Z,196.88
2023-05-04T05:59:03.542Z,185.62
2023-05-04T06:00:03.780Z,174.38
2023-05-04T06:01:03.542Z,174.38
2023-05-04T06:02:03.529Z,174.38
2023-05-04T06:03:03.723Z,180.00
2023-05-04T06:04:03.627Z,174.38
2023-05-04T06:05:03.848Z,191.25
2023-05-04T06:06:03.505Z,196.88
2023-05-04T06:07:03.465Z,241.88
2023-05-04T06:08:03.477Z,270.00
2023-05-04T06:09:03.442Z,292.50
2023-05-04T06:10:03.565Z,292.50
2023-05-04T06:11:03.404Z,270.00
2023-05-04T06:12:03.717Z,253.12
2023-05-04T06:13:03.760Z,253.12
2023-05-04T06:14:03.353Z,253.12
2023-05-04T06:15:03.354Z,213.75
2023-05-04T06:16:03.358Z,185.62
2023-05-04T06:17:03.346Z,168.75
2023-05-04T06:18:03.539Z,174.38
2023-05-04T06:19:03.323Z,191.25
2023-05-04T06:20:03.355Z,208.12
2023-05-04T06:21:03.336Z,196.88
2023-05-04T06:22:03.258Z,191.25
2023-05-04T06:23:03.278Z,180.00
2023-05-04T06:24:03.246Z,163.12
2023-05-04T06:25:07.186Z,185.62
2023-05-04T06:26:03.215Z,191.25
2023-05-04T06:27:03.246Z,213.75
2023-05-04T06:28:03.218Z,213.75
2023-05-04T06:29:03.943Z,270.00
2023-05-04T06:30:03.423Z,270.00
2023-05-04T06:31:03.171Z,230.62
2023-05-04T06:32:03.183Z,225.00
2023-05-04T06:33:03.210Z,225.00
2023-05-04T06:34:03.117Z,270.00
2023-05-04T06:35:03.212Z,180.00
2023-05-04T06:36:03.093Z,180.00
2023-05-04T06:37:03.112Z,303.75
2023-05-04T06:38:03.458Z,343.12
2023-05-04T06:39:03.077Z,326.25
2023-05-04T06:40:03.090Z,393.75
2023-05-04T06:41:03.115Z,416.25
2023-05-04T06:42:03.045Z,348.75
2023-05-04T06:43:03.054Z,461.25
2023-05-04T06:44:03.018Z,579.38
2023-05-04T06:45:03.037Z,528.75
2023-05-04T06:46:03.022Z,326.25
2023-05-04T06:47:03.008Z,298.12
2023-05-04T06:48:03.043Z,247.50
2023-05-04T06:49:02.989Z,241.88
2023-05-04T06:50:03.132Z,230.62
2023-05-04T06:51:03.199Z,208.12
2023-05-04T06:52:02.910Z,225.00
2023-05-04T06:53:02.946Z,196.88
2023-05-04T06:54:02.909Z,264.38
2023-05-04T06:55:02.897Z,219.38
2023-05-04T06:56:02.899Z,191.25
2023-05-04T06:57:02.870Z,180.00
2023-05-04T06:58:02.865Z,174.38
2023-05-04T06:59:02.853Z,258.75
2023-05-04T07:00:03.036Z,303.75
2023-05-04T07:01:02.867Z,264.38
2023-05-04T07:02:02.798Z,174.38
2023-05-04T07:03:02.837Z,213.75
2023-05-04T07:04:02.867Z,196.88
2023-05-04T07:05:02.805Z,185.62
2023-05-04T07:06:02.752Z,405.00
2023-05-04T07:07:02.763Z,191.25
2023-05-04T07:08:02.747Z,191.25
2023-05-04T07:09:02.730Z,196.88
2023-05-04T07:10:03.290Z,196.88
2023-05-04T07:11:02.705Z,213.75
2023-05-04T07:12:02.679Z,213.75
2023-05-04T07:13:02.709Z,219.38
2023-05-04T07:14:02.648Z,292.50
2023-05-04T07:15:02.664Z,275.62
2023-05-04T07:16:02.679Z,298.12
2023-05-04T07:17:02.632Z,253.12
2023-05-04T07:18:02.668Z,286.88
2023-05-04T07:19:02.592Z,540.00
2023-05-04T07:20:02.876Z,343.12
2023-05-04T07:21:16.690Z,360.00
2023-05-04T07:22:03.565Z,264.38
2023-05-04T07:23:02.550Z,185.62
2023-05-04T07:24:02.527Z,241.88
2023-05-04T07:25:02.538Z,236.25
2023-05-04T07:26:02.532Z,241.88
2023-05-04T07:27:02.511Z,230.62
2023-05-04T07:28:02.490Z,241.88
2023-05-04T07:29:02.492Z,230.62
2023-05-04T07:30:02.720Z,213.75
2023-05-04T07:31:02.490Z,253.12
2023-05-04T07:32:02.466Z,219.38
2023-05-04T07:33:02.475Z,225.00
2023-05-04T07:34:02.428Z,191.25
2023-05-04T07:35:02.718Z,196.88
2023-05-04T07:36:02.402Z,180.00
2023-05-04T07:37:02.404Z,185.62
2023-05-04T07:38:02.376Z,208.12
2023-05-04T07:39:02.376Z,180.00
2023-05-04T07:40:02.510Z,180.00
2023-05-04T07:41:02.358Z,180.00
2023-05-04T07:42:02.320Z,185.62
2023-05-04T07:43:02.322Z,191.25
2023-05-04T07:44:02.299Z,174.38
2023-05-04T07:45:02.316Z,151.88
2023-05-04T07:46:02.303Z,163.12
2023-05-04T07:47:02.280Z,157.50
2023-05-04T07:48:02.264Z,168.75
2023-05-04T07:49:02.254Z,180.00
2023-05-04T07:50:02.379Z,157.50
2023-05-04T07:51:02.221Z,163.12
2023-05-04T07:52:02.220Z,168.75
2023-05-04T07:53:02.207Z,180.00
2023-05-04T07:54:02.198Z,174.38
2023-05-04T07:55:02.182Z,185.62
2023-05-04T07:56:02.151Z,168.75
2023-05-04T07:57:02.176Z,168.75
2023-05-04T07:58:02.129Z,174.38
2023-05-04T07:59:02.139Z,168.75
2023-05-04T08:00:02.245Z,196.88
2023-05-04T08:01:02.151Z,163.12
2023-05-04T08:02:02.133Z,163.12
2023-05-04T08:03:02.125Z,135.00
2023-05-04T08:04:02.072Z,135.00
2023-05-04T08:05:02.072Z,129.38
2023-05-04T08:06:02.074Z,123.75
2023-05-04T08:07:02.045Z,123.75
2023-05-04T08:08:02.031Z,123.75
2023-05-04T08:09:02.020Z,118.12
2023-05-04T08:10:02.221Z,123.75
2023-05-04T08:11:15.866Z,123.75
2023-05-04T08:12:02.975Z,123.75
2023-05-04T08:13:02.025Z,118.12
2023-05-04T08:14:01.953Z,123.75
2023-05-04T08:15:02.105Z,123.75
2023-05-04T08:16:01.930Z,118.12
2023-05-04T08:17:02.001Z,118.12
2023-05-04T08:18:01.968Z,123.75
2023-05-04T08:19:01.916Z,106.88
2023-05-04T08:20:01.872Z,112.50
2023-05-04T08:21:01.874Z,106.88
2023-05-04T08:22:01.860Z,112.50
2023-05-04T08:23:01.860Z,106.88
2023-05-04T08:24:01.977Z,106.88
2023-05-04T08:25:01.854Z,112.50
2023-05-04T08:26:01.808Z,112.50
2023-05-04T08:27:08.048Z,112.50
2023-05-04T08:28:02.776Z,112.50
2023-05-04T08:29:01.813Z,112.50
2023-05-04T08:30:01.774Z,112.50
2023-05-04T08:31:01.776Z,112.50
2023-05-04T08:32:01.782Z,112.50
2023-05-04T08:33:01.786Z,112.50
2023-05-04T08:34:01.740Z,112.50
2023-05-04T08:35:01.788Z,112.50
2023-05-04T08:36:01.698Z,112.50
2023-05-04T08:37:01.700Z,112.50
2023-05-04T08:38:01.676Z,101.25
2023-05-04T08:39:01.728Z,106.88
2023-05-04T08:40:01.675Z,95.62
2023-05-04T08:41:01.651Z,101.25
2023-05-04T08:42:01.620Z,101.25
2023-05-04T08:43:01.638Z,101.25
2023-05-04T08:44:01.626Z,106.88
2023-05-04T08:45:01.617Z,101.25
2023-05-04T08:46:01.628Z,101.25
2023-05-04T08:47:01.584Z,101.25
2023-05-04T08:48:01.561Z,101.25
2023-05-04T08:49:01.597Z,101.25
2023-05-04T08:50:01.531Z,95.62
2023-05-04T08:51:01.536Z,90.00
2023-05-04T08:52:01.517Z,101.25
2023-05-04T08:53:01.521Z,95.62
2023-05-04T08:54:01.548Z,95.62
2023-05-04T08:55:01.489Z,95.62
2023-05-04T08:56:01.483Z,90.00
2023-05-04T08:57:01.451Z,90.00
2023-05-04T08:58:01.937Z,90.00
2023-05-04T08:59:01.471Z,90.00
2023-05-04T09:00:01.437Z,90.00
2023-05-04T09:01:02.068Z,90.00
2023-05-04T09:02:01.537Z,90.00
2023-05-04T09:03:01.557Z,90.00
2023-05-04T09:04:02.059Z,90.00
2023-05-04T09:05:01.499Z,90.00
2023-05-04T09:06:01.464Z,90.00
2023-05-04T09:07:01.376Z,84.38
2023-05-04T09:08:01.337Z,90.00
2023-05-04T09:09:01.385Z,84.38
2023-05-04T09:10:01.317Z,90.00
2023-05-04T09:11:01.315Z,90.00
2023-05-04T09:12:01.319Z,90.00
2023-05-04T09:13:01.558Z,90.00
2023-05-04T09:14:01.552Z,84.38
2023-05-04T09:15:01.589Z,84.38
2023-05-04T09:16:01.599Z,90.00
2023-05-04T09:17:01.698Z,84.38
2023-05-04T09:18:01.579Z,84.38
2023-05-04T09:19:01.220Z,84.38
2023-05-04T09:20:01.330Z,84.38
2023-05-04T09:21:01.169Z,78.75
2023-05-04T09:22:01.831Z,84.38
2023-05-04T09:23:01.146Z,84.38
2023-05-04T09:24:01.191Z,84.38
2023-05-04T09:25:01.137Z,84.38
2023-05-04T09:26:01.116Z,84.38
2023-05-04T09:27:01.114Z,84.38
2023-05-04T09:28:01.107Z,84.38
2023-05-04T09:29:01.100Z,84.38
2023-05-04T09:30:01.120Z,84.38
2023-05-04T09:31:01.110Z,84.38
2023-05-04T09:32:01.059Z,84.38
2023-05-04T09:33:01.047Z,84.38
2023-05-04T09:34:01.037Z,84.38
2023-05-04T09:35:01.024Z,78.75
2023-05-04T09:36:01.052Z,78.75
2023-05-04T09:37:00.996Z,78.75
2023-05-04T09:38:01.208Z,78.75
2023-05-04T09:39:00.985Z,78.75
2023-05-04T09:40:00.968Z,84.38
2023-05-04T09:41:00.936Z,78.75
2023-05-04T09:42:00.946Z,78.75
2023-05-04T09:43:00.998Z,78.75
2023-05-04T09:44:00.922Z,78.75
2023-05-04T09:45:00.987Z,78.75
2023-05-04T09:46:00.941Z,78.75
2023-05-04T09:47:00.876Z,78.75
2023-05-04T09:48:00.948Z,78.75
2023-05-04T09:49:00.867Z,78.75
2023-05-04T09:50:00.963Z,78.75
2023-05-04T09:51:00.909Z,73.12
2023-05-04T09:52:00.845Z,73.12
2023-05-04T09:53:00.829Z,73.12
2023-05-04T09:54:00.845Z,78.75
2023-05-04T09:55:00.866Z,73.12
2023-05-04T09:56:02.888Z,78.75
2023-05-04T09:57:00.745Z,78.75
2023-05-04T09:58:00.780Z,78.75
2023-05-04T09:59:00.747Z,78.75
2023-05-04T10:00:00.736Z,78.75
2023-05-04T10:01:00.700Z,84.38
2023-05-04T10:02:10.574Z,78.75
2023-05-04T10:03:01.724Z,84.38
2023-05-04T10:04:00.700Z,78.75
2023-05-04T10:05:00.710Z,78.75
2023-05-04T10:06:00.738Z,67.50
2023-05-04T10:07:00.629Z,67.50
2023-05-04T10:08:00.687Z,67.50
2023-05-04T10:09:00.654Z,61.88
2023-05-04T10:10:00.626Z,67.50
2023-05-04T10:11:00.597Z,67.50
2023-05-04T10:12:00.774Z,61.88
2023-05-04T10:13:00.626Z,67.50
2023-05-04T10:14:00.600Z,61.88
2023-05-04T10:15:00.554Z,61.88
2023-05-04T10:16:00.590Z,61.88
2023-05-04T10:17:00.543Z,61.88
2023-05-04T10:18:00.808Z,67.50
2023-05-04T10:19:00.988Z,67.50
2023-05-04T10:20:00.533Z,67.50
2023-05-04T10:21:00.505Z,67.50
2023-05-04T10:22:00.502Z,67.50
2023-05-04T10:23:00.474Z,67.50
2023-05-04T10:24:00.469Z,73.12
2023-05-04T10:25:00.456Z,67.50
2023-05-04T10:26:00.438Z,67.50
2023-05-04T10:27:00.456Z,67.50
2023-05-04T10:28:00.445Z,67.50
2023-05-04T10:29:01.104Z,67.50
2023-05-04T10:30:00.836Z,67.50
2023-05-04T10:31:00.382Z,67.50
2023-05-04T10:32:00.527Z,67.50
2023-05-04T10:33:00.426Z,67.50
2023-05-04T10:34:00.369Z,67.50
2023-05-04T10:35:00.344Z,67.50
2023-05-04T10:36:00.369Z,67.50
2023-05-04T10:37:00.338Z,61.88
2023-05-04T10:38:00.316Z,61.88
2023-05-04T10:39:00.273Z,61.88
2023-05-04T10:40:00.271Z,61.88
2023-05-04T10:41:00.276Z,61.88
2023-05-04T10:42:00.285Z,56.25
2023-05-04T10:43:00.221Z,56.25
2023-05-04T10:44:00.236Z,56.25
2023-05-04T10:45:00.208Z,56.25
2023-05-04T10:46:00.257Z,50.62
2023-05-04T10:47:00.174Z,50.62
2023-05-04T10:48:00.268Z,45.00
2023-05-04T10:49:00.278Z,45.00
2023-05-04T10:50:00.349Z,45.00
2023-05-04T10:51:00.249Z,45.00
2023-05-04T10:52:00.324Z,45.00
2023-05-04T10:53:00.264Z,45.00
2023-05-04T10:54:00.171Z,45.00
2023-05-04T10:55:00.245Z,45.00
2023-05-04T10:56:00.115Z,45.00
2023-05-04T10:57:00.081Z,45.00
2023-05-04T10:58:00.068Z,45.00
2023-05-04T10:59:00.066Z,45.00
2023-05-04T11:00:00.038Z,45.00
2023-05-04T11:01:00.074Z,45.00
2023-05-04T11:02:00.252Z,45.00
2023-05-04T11:03:00.366Z,45.00
2023-05-04T11:04:00.264Z,45.00
2023-05-04T11:04:59.979Z,45.00
2023-05-04T11:05:59.989Z,45.00
2023-05-04T11:07:00.265Z,45.00
2023-05-04T11:08:00.606Z,45.00
2023-05-04T11:08:59.930Z,45.00
2023-05-04T11:09:59.927Z,45.00
2023-05-04T11:11:00.264Z,45.00
2023-05-04T11:12:00.276Z,45.00
2023-05-04T11:13:00.300Z,45.00
2023-05-04T11:14:00.325Z,45.00
2023-05-04T11:15:00.252Z,45.00
2023-05-04T11:16:00.391Z,45.00
2023-05-04T11:17:00.271Z,45.00
2023-05-04T11:18:00.312Z,45.00
2023-05-04T11:18:59.829Z,39.38
2023-05-04T11:19:59.849Z,39.38
2023-05-04T11:20:59.854Z,39.38
2023-05-04T11:21:59.888Z,45.00
2023-05-04T11:22:59.884Z,45.00
2023-05-04T11:23:59.910Z,45.00
2023-05-04T11:24:59.908Z,45.00
2023-05-04T11:25:59.756Z,45.00
2023-05-04T11:26:59.734Z,39.38
2023-05-04T11:27:59.798Z,45.00
2023-05-04T11:28:59.826Z,39.38
2023-05-04T11:29:59.779Z,45.00
2023-05-04T11:30:59.871Z,45.00
2023-05-04T11:31:59.953Z,39.38
2023-05-04T11:32:59.966Z,39.38
2023-05-04T11:33:59.823Z,39.38
2023-05-04T11:34:59.647Z,39.38
2023-05-04T11:36:00.049Z,39.38
2023-05-04T11:36:59.837Z,39.38
2023-05-04T11:37:59.644Z,39.38
2023-05-04T11:39:00.142Z,39.38
2023-05-04T11:40:00.177Z,39.38
2023-05-04T11:40:59.613Z,39.38
2023-05-04T11:41:59.587Z,33.75
2023-05-04T11:43:00.180Z,39.38
2023-05-04T11:43:59.762Z,33.75
2023-05-04T11:44:59.530Z,39.38
2023-05-04T11:45:59.570Z,33.75
2023-05-04T11:47:00.206Z,33.75
2023-05-04T11:48:00.346Z,33.75
2023-05-04T11:48:59.528Z,33.75
2023-05-04T11:49:59.500Z,33.75
2023-05-04T11:50:59.471Z,33.75
2023-05-04T11:51:59.470Z,33.75
2023-05-04T11:52:59.445Z,33.75
2023-05-04T11:53:59.495Z,33.75
2023-05-04T11:54:59.436Z,33.75
2023-05-04T11:55:59.418Z,33.75
2023-05-04T11:57:00.296Z,33.75
2023-05-04T11:57:59.604Z,33.75
2023-05-04T11:58:59.514Z,33.75
2023-05-04T11:59:59.438Z,33.75
2023-05-04T12:01:00.306Z,33.75
2023-05-04T12:01:59.353Z,33.75
2023-05-04T12:02:59.366Z,33.75
2023-05-04T12:03:59.461Z,33.75
2023-05-04T12:04:59.325Z,33.75
2023-05-04T12:05:59.392Z,33.75
2023-05-04T12:07:01.679Z,33.75
2023-05-04T12:07:59.281Z,28.12
2023-05-04T12:08:59.259Z,28.12
2023-05-04T12:09:59.258Z,28.12
2023-05-04T12:10:59.227Z,33.75
2023-05-04T12:11:59.226Z,28.12
2023-05-04T12:12:59.217Z,28.12
2023-05-04T12:13:59.234Z,28.12
2023-05-04T12:14:59.180Z,28.12
2023-05-04T12:15:59.279Z,28.12
2023-05-04T12:16:59.158Z,28.12
2023-05-04T12:18:01.001Z,28.12
2023-05-04T12:18:59.151Z,28.12
2023-05-04T12:19:59.142Z,28.12
2023-05-04T12:20:59.117Z,28.12
2023-05-04T12:21:59.145Z,28.12
2023-05-04T12:22:59.092Z,28.12
2023-05-04T12:23:59.116Z,28.12
2023-05-04T12:24:59.074Z,28.12
2023-05-04T12:25:59.083Z,28.12
2023-05-04T12:26:59.038Z,22.50
2023-05-04T12:27:59.044Z,28.12
2023-05-04T12:28:59.051Z,28.12
2023-05-04T12:29:59.029Z,28.12
2023-05-04T12:30:58.998Z,28.12
2023-05-04T12:31:59.065Z,28.12
2023-05-04T12:32:59.014Z,28.12
2023-05-04T12:33:58.993Z,28.12
2023-05-04T12:34:58.951Z,28.12
2023-05-04T12:35:58.947Z,28.12
2023-05-04T12:36:58.927Z,28.12
2023-05-04T12:37:58.945Z,28.12
2023-05-04T12:38:58.900Z,28.12
2023-05-04T12:39:58.933Z,28.12
2023-05-04T12:40:58.883Z,28.12
2023-05-04T12:41:58.914Z,28.12
2023-05-04T12:42:58.878Z,28.12
2023-05-04T12:43:58.879Z,28.12
2023-05-04T12:44:58.862Z,28.12
2023-05-04T12:45:58.862Z,28.12
2023-05-04T12:46:58.824Z,28.12
2023-05-04T12:47:58.862Z,33.75
2023-05-04T12:48:58.793Z,28.12
2023-05-04T12:49:58.803Z,28.12
2023-05-04T12:50:58.768Z,33.75
2023-05-04T12:51:58.774Z,33.75
2023-05-04T12:52:58.762Z,33.75
2023-05-04T12:53:58.749Z,33.75
2023-05-04T12:54:58.734Z,33.75